| time (UTC) | temp C | wind direction | speed KPH | gust KPH | rain 1hr cm | rain 24hr cm | rain mn cm | humidity % | barometer mb |
| 20260507094045 | 9 | 51 | 4.8 | 11.3 | 0.00 | 0.00 | 0.38 | 99 | 1008.6 |
| 20260507093044 | 8 | 42 | 6.4 | 12.9 | 0.00 | 0.00 | 0.38 | 99 | 1008.2 |
| 20260507092055 | 8 | 51 | 8.0 | 16.1 | 0.00 | 0.00 | 0.38 | 99 | 1008.2 |
| 20260507091037 | 9 | 51 | 9.7 | 14.5 | 0.00 | 0.00 | 0.38 | 99 | 1008.2 |
| 20260507090047 | 8 | 51 | 8.0 | 16.1 | 0.00 | 0.00 | 0.38 | 99 | 1008.3 |
| 20260507084047 | 8 | 47 | 9.7 | 19.3 | 0.00 | 0.00 | 0.38 | 99 | 1008.0 |
| 20260507083042 | 8 | 65 | 6.4 | 14.5 | 0.00 | 0.00 | 0.38 | 99 | 1007.9 |
| 20260507081051 | 8 | 51 | 6.4 | 12.9 | 0.00 | 0.00 | 0.38 | 99 | 1007.7 |
| 20260507074051 | 8 | 47 | 8.0 | 14.5 | 0.00 | 0.00 | 0.38 | 99 | 1007.3 |
| 20260507073049 | 8 | 44 | 9.7 | 16.1 | 0.00 | 0.00 | 0.38 | 99 | 1007.3 |
| 20260507072052 | 8 | 49 | 8.0 | 16.1 | 0.00 | 0.00 | 0.38 | 99 | 1007.3 |
| 20260507071051 | 8 | 51 | 9.7 | 17.7 | 0.00 | 0.00 | 0.38 | 99 | 1007.1 |
| 20260507070047 | 7 | 45 | 9.7 | 19.3 | 0.00 | 0.00 | 0.38 | 99 | 1006.6 |
| 20260507065054 | 7 | 42 | 8.0 | 16.1 | 0.03 | 0.00 | 0.38 | 99 | 1006.6 |
| 20260507062041 | 8 | 40 | 6.4 | 12.9 | 0.03 | 0.00 | 0.38 | 99 | 1006.6 |
| 20260507061036 | 7 | 48 | 8.0 | 16.1 | 0.03 | 0.00 | 0.38 | 99 | 1006.6 |
| 20260507060040 | 7 | 44 | 8.0 | 14.5 | 0.03 | 0.00 | 0.38 | 99 | 1006.3 |
| 20260507054044 | 7 | 17 | 8.0 | 20.9 | 0.00 | 0.00 | 0.38 | 99 | 1006.0 |
| 20260507053039 | 7 | 41 | 6.4 | 16.1 | 0.00 | 0.00 | 0.38 | 99 | 1006.0 |
| 20260507052042 | 7 | 47 | 6.4 | 11.3 | 0.00 | 0.00 | 0.38 | 99 | 1006.0 |
| 20260507051044 | 7 | 41 | 4.8 | 9.7 | 0.00 | 0.00 | 0.38 | 99 | 1005.6 |
| 20260507050041 | 7 | 41 | 6.4 | 14.5 | 0.00 | 0.00 | 0.38 | 99 | 1005.6 |
| 20260507044036 | 7 | 39 | 6.4 | 14.5 | 0.00 | 0.00 | 0.38 | 99 | 1004.9 |
| 20260507043041 | 7 | 41 | 6.4 | 12.9 | 0.03 | 0.00 | 0.38 | 99 | 1004.9 |
| 20260507042045 | 7 | 39 | 3.2 | 6.4 | 0.05 | 0.00 | 0.38 | 99 | 1004.9 |
| 20260507040050 | 7 | 39 | 6.4 | 12.9 | 0.08 | 0.00 | 0.38 | 99 | 1004.9 |
| 20260507035051 | 7 | 41 | 6.4 | 14.5 | 0.10 | 0.00 | 0.38 | 99 | 1004.9 |
| 20260507034039 | 7 | 51 | 8.0 | 14.5 | 0.15 | 0.00 | 0.38 | 99 | 1005.0 |
| 20260507033050 | 7 | 39 | 6.4 | 12.9 | 0.10 | 0.00 | 0.33 | 99 | 1004.8 |
| 20260507032046 | 7 | 43 | 6.4 | 17.7 | 0.10 | 0.00 | 0.30 | 99 | 1004.8 |
| 20260507030055 | 7 | 40 | 9.7 | 17.7 | 0.10 | 0.00 | 0.28 | 99 | 1004.6 |
| 20260507025047 | 7 | 50 | 6.4 | 12.9 | 0.10 | 0.00 | 0.25 | 99 | 1004.5 |
| 20260507024047 | 7 | 46 | 6.4 | 11.3 | 0.15 | 0.00 | 0.23 | 99 | 1004.5 |
| 20260507023040 | 7 | 49 | 8.0 | 16.1 | 0.15 | 0.00 | 0.23 | 99 | 1004.4 |
| 20260507022037 | 8 | 19 | 8.0 | 17.7 | 0.15 | 0.00 | 0.20 | 99 | 1004.4 |
| 20260507021043 | 8 | 19 | 6.4 | 12.9 | 0.13 | 0.00 | 0.18 | 99 | 1004.4 |
| 20260507015044 | 8 | 19 | 6.4 | 14.5 | 0.15 | 0.00 | 0.15 | 99 | 1004.2 |
| 20260507013039 | 8 | 20 | 4.8 | 12.9 | 0.05 | 0.00 | 0.08 | 99 | 1004.0 |
| 20260507012038 | 8 | 29 | 4.8 | 14.5 | 0.05 | 0.00 | 0.05 | 99 | 1003.8 |
| 20260507010044 | 8 | 18 | 4.8 | 11.3 | 0.05 | 0.00 | 0.05 | 99 | 1003.8 |
| 20260507005032 | 8 | 47 | 4.8 | 9.7 | 0.05 | 0.00 | 0.03 | 99 | 1003.8 |
| 20260507004030 | 8 | 23 | 4.8 | 12.9 | 0.05 | 0.00 | 0.03 | 99 | 1003.6 |
| 20260507003043 | 8 | 19 | 6.4 | 14.5 | 0.05 | 0.00 | 0.03 | 99 | 1003.5 |
| 20260507001047 | 8 | 27 | 4.8 | 9.7 | 0.03 | 0.00 | 0.00 | 99 | 1003.5 |
| 20260507000048 | 8 | 19 | 6.4 | 17.7 | 0.03 | 0.00 | 0.03 | 99 | 1003.4 |
| 20260506235041 | 8 | 19 | 4.8 | 12.9 | 0.00 | 0.00 | 2.01 | 99 | 1003.5 |
| 20260506234044 | 8 | 23 | 6.4 | 14.5 | 0.00 | 0.00 | 2.01 | 99 | 1003.3 |
| 20260506233045 | 8 | 46 | 6.4 | 16.1 | 0.00 | 0.00 | 2.01 | 99 | 1003.2 |
| 20260506232035 | 8 | 20 | 6.4 | 16.1 | 0.00 | 0.00 | 2.01 | 99 | 1003.3 |
| 20260506231050 | 8 | 26 | 6.4 | 16.1 | 0.00 | 0.00 | 2.01 | 99 | 1003.1 |
| 20260506230041 | 8 | 48 | 6.4 | 12.9 | 0.00 | 0.00 | 2.01 | 99 | 1003.1 |
| 20260506225052 | 8 | 44 | 6.4 | 12.9 | 0.00 | 0.00 | 2.01 | 99 | 1003.1 |
| 20260506223044 | 8 | 41 | 8.0 | 16.1 | 0.00 | 0.00 | 2.01 | 99 | 1003.1 |
| 20260506222039 | 8 | 27 | 8.0 | 14.5 | 0.00 | 0.00 | 2.01 | 99 | 1002.8 |
| 20260506220047 | 8 | 24 | 8.0 | 16.1 | 0.03 | 0.00 | 2.01 | 99 | 1002.9 |
| 20260506215039 | 8 | 45 | 6.4 | 17.7 | 0.03 | 0.00 | 2.01 | 99 | 1002.9 |
| 20260506214042 | 8 | 28 | 6.4 | 14.5 | 0.05 | 0.00 | 2.01 | 99 | 1002.7 |
| 20260506213046 | 8 | 18 | 6.4 | 12.9 | 0.08 | 0.00 | 2.01 | 99 | 1002.7 |
| 20260506212044 | 9 | 18 | 8.0 | 16.1 | 0.10 | 0.00 | 2.01 | 99 | 1002.6 |
| 20260506211038 | 9 | 47 | 8.0 | 17.7 | 0.10 | 0.00 | 1.98 | 99 | 1002.5 |
| 20260506210051 | 9 | 48 | 8.0 | 14.5 | 0.13 | 0.00 | 1.98 | 99 | 1002.5 |
| 20260506204045 | 10 | 25 | 6.4 | 17.7 | 0.15 | 0.00 | 1.96 | 99 | 1002.4 |
| 20260506202048 | 10 | 19 | 8.0 | 16.1 | 0.15 | 0.00 | 1.91 | 99 | 1002.4 |
| 20260506201037 | 10 | 4 | 3.2 | 8.0 | 0.13 | 0.00 | 1.88 | 99 | 1002.3 |
| 20260506200052 | 10 | 19 | 1.6 | 4.8 | 0.10 | 0.00 | 1.85 | 99 | 1001.9 |
| 20260506195046 | 10 | 49 | 6.4 | 17.7 | 0.10 | 0.00 | 1.83 | 99 | 1001.9 |
| 20260506194039 | 10 | 41 | 6.4 | 11.3 | 0.10 | 0.00 | 1.80 | 99 | 1001.6 |
| 20260506193040 | 10 | 22 | 3.2 | 8.0 | 0.08 | 0.00 | 1.78 | 99 | 1001.6 |
| 20260506192038 | 10 | 26 | 4.8 | 11.3 | 0.05 | 0.00 | 1.75 | 99 | 1001.6 |
| 20260506191042 | 10 | 26 | 4.8 | 9.7 | 0.05 | 0.00 | 1.75 | 99 | 1001.6 |
| 20260506185035 | 10 | 44 | 4.8 | 12.9 | 0.05 | 0.00 | 1.73 | 99 | 1001.1 |
| 20260506183038 | 10 | 25 | 4.8 | 9.7 | 0.03 | 0.00 | 1.70 | 99 | 1001.0 |
| 20260506182051 | 10 | 25 | 4.8 | 9.7 | 0.05 | 0.00 | 1.70 | 99 | 1001.0 |
| 20260506181052 | 10 | 27 | 3.2 | 9.7 | 0.05 | 0.00 | 1.70 | 99 | 1001.0 |
| 20260506180053 | 10 | 355 | 0.0 | 4.8 | 0.03 | 0.00 | 1.68 | 99 | 1001.2 |
| 20260506173052 | 10 | 43 | 4.8 | 11.3 | 0.03 | 0.00 | 1.68 | 99 | 1000.9 |
| 20260506172048 | 10 | 23 | 4.8 | 9.7 | 0.00 | 0.00 | 1.65 | 99 | 1000.8 |
| 20260506170054 | 10 | 47 | 3.2 | 8.0 | 0.00 | 0.00 | 1.65 | 99 | 1000.8 |
| 20260506165052 | 10 | 24 | 1.6 | 8.0 | 0.03 | 0.00 | 1.65 | 99 | 1000.7 |
| 20260506164049 | 10 | 27 | 3.2 | 9.7 | 0.05 | 0.00 | 1.65 | 99 | 1000.7 |
| 20260506163040 | 10 | 23 | 3.2 | 9.7 | 0.05 | 0.00 | 1.65 | 99 | 1000.6 |
| 20260506162039 | 10 | 23 | 6.4 | 11.3 | 0.05 | 0.00 | 1.65 | 99 | 1000.6 |
| 20260506161039 | 10 | 18 | 6.4 | 16.1 | 0.05 | 0.00 | 1.65 | 99 | 1000.8 |
| 20260506160045 | 10 | 48 | 6.4 | 14.5 | 0.05 | 0.00 | 1.65 | 99 | 1000.8 |
| 20260506155037 | 10 | 40 | 4.8 | 11.3 | 0.03 | 0.00 | 1.63 | 99 | 1000.9 |
| 20260506154041 | 10 | 40 | 6.4 | 14.5 | 0.00 | 0.00 | 1.60 | 99 | 1000.9 |
| 20260506153037 | 10 | 72 | 4.8 | 11.3 | 0.00 | 0.00 | 1.60 | 99 | 1000.9 |
| 20260506152053 | 10 | 49 | 4.8 | 8.0 | 0.00 | 0.00 | 1.60 | 99 | 1000.9 |
| 20260506150046 | 10 | 20 | 4.8 | 9.7 | 0.03 | 0.00 | 1.60 | 99 | 1000.6 |
| 20260506145046 | 10 | 47 | 6.4 | 14.5 | 0.03 | 0.00 | 1.60 | 99 | 1000.6 |
| 20260506144040 | 10 | 44 | 8.0 | 14.5 | 0.03 | 0.00 | 1.60 | 99 | 1000.6 |
| 20260506143046 | 10 | 50 | 6.4 | 12.9 | 0.03 | 0.00 | 1.60 | 99 | 1000.6 |
| 20260506142047 | 10 | 46 | 8.0 | 14.5 | 0.03 | 0.00 | 1.60 | 99 | 1000.7 |
| 20260506141055 | 10 | 48 | 11.3 | 19.3 | 0.00 | 0.00 | 1.57 | 99 | |
| 20260506135031 | 10 | 50 | 9.7 | 16.1 | 0.00 | 0.00 | 1.57 | 99 | |
| 20260506134053 | 10 | 44 | 11.3 | 20.9 | 0.00 | 0.00 | 1.57 | 99 | |
| 20260506133046 | 10 | 44 | 9.7 | 19.3 | 0.00 | 0.00 | 1.57 | 99 | 1000.7 |
| 20260506132039 | 10 | 72 | 8.0 | 16.1 | 0.00 | 0.00 | 1.57 | 99 | 1000.7 |
| 20260506131031 | 10 | 45 | 11.3 | 19.3 | 0.03 | 0.00 | 1.57 | 99 | 1000.7 |
| 20260506130040 | 10 | 48 | 12.9 | 22.5 | 0.03 | 0.00 | 1.57 | 99 | 1000.7 |
| 20260506125047 | 10 | 41 | 9.7 | 19.3 | 0.03 | 0.00 | 1.57 | 99 | 1000.7 |
| 20260506123044 | 10 | 73 | 8.0 | 14.5 | 0.05 | 0.00 | 1.57 | 99 | 1000.7 |
| 20260506122048 | 10 | 68 | 9.7 | 19.3 | 0.05 | 0.00 | 1.57 | 99 | 1000.7 |
| 20260506121038 | 10 | 50 | 9.7 | 16.1 | 0.05 | 0.00 | 1.55 | 99 | 1000.8 |
| 20260506120049 | 10 | 40 | 6.4 | 14.5 | 0.05 | 0.00 | 1.55 | 99 | 1000.7 |
| 20260506115052 | 10 | 40 | 9.7 | 14.5 | 0.08 | 0.00 | 1.55 | 99 | 1000.6 |
| 20260506114047 | 10 | 44 | 6.4 | 12.9 | 0.08 | 0.00 | 1.55 | 99 | 1000.8 |
| 20260506113051 | 10 | 43 | 9.7 | 17.7 | 0.05 | 0.00 | 1.52 | 99 | 1000.9 |
| 20260506110055 | 9 | 49 | 6.4 | 14.5 | 0.10 | 0.00 | 1.50 | 99 | 1000.7 |
| 20260506105045 | 9 | 50 | 8.0 | 19.3 | 0.08 | 0.00 | 1.47 | 99 | 1000.7 |
| 20260506104041 | 9 | 48 | 8.0 | 16.1 | 0.08 | 0.00 | 1.47 | 99 | 1000.7 |
| 20260506103047 | 9 | 48 | 6.4 | 16.1 | 0.08 | 0.00 | 1.47 | 99 | 1000.7 |
| 20260506102050 | 8 | 39 | 6.4 | 16.1 | 0.03 | 0.00 | 1.42 | 99 | 1000.7 |
| 20260506101044 | 9 | 49 | 8.0 | 16.1 | 0.05 | 0.00 | 1.42 | 99 | 1000.8 |
| 20260506095050 | 8 | 39 | 6.4 | 16.1 | 0.03 | 0.00 | 1.40 | 99 | 1000.7 |